createdAt,value
2022-09-23T00:01:26.951Z,7.33
2022-09-23T00:03:55.626Z,7.31
2022-09-23T00:06:24.624Z,7.29
2022-09-23T00:08:52.918Z,7.26
2022-09-23T00:11:23.831Z,7.23
2022-09-23T00:13:55.344Z,7.19
2022-09-23T00:16:26.084Z,7.14
2022-09-23T00:18:54.597Z,7.11
2022-09-23T00:21:23.380Z,7.08
2022-09-23T00:23:51.914Z,7.05
2022-09-23T00:26:22.255Z,7.03
2022-09-23T00:28:51.334Z,7.02
2022-09-23T00:31:26.249Z,6.98
2022-09-23T00:34:00.240Z,6.95
2022-09-23T00:36:29.940Z,6.92
2022-09-23T00:38:58.359Z,6.89
2022-09-23T00:41:27.712Z,6.87
2022-09-23T00:44:00.720Z,6.85
2022-09-23T00:46:39.069Z,6.82
2022-09-23T00:49:25.076Z,6.80
2022-09-23T00:52:00.954Z,6.77
2022-09-23T00:54:30.258Z,6.74
2022-09-23T00:57:00.199Z,6.72
2022-09-23T00:59:29.268Z,6.70
2022-09-23T01:02:00.514Z,6.67
2022-09-23T01:04:30.316Z,6.63
2022-09-23T01:07:10.517Z,6.61
2022-09-23T01:09:38.483Z,6.58
2022-09-23T01:12:24.682Z,6.56
2022-09-23T01:15:28.854Z,6.53
2022-09-23T01:18:17.939Z,6.51
2022-09-23T01:21:16.917Z,6.49
2022-09-23T01:24:09.159Z,6.48
2022-09-23T01:26:40.127Z,6.46
2022-09-23T01:29:36.560Z,6.47
2022-09-23T01:32:26.462Z,6.47
2022-09-23T01:35:24.892Z,6.46
2022-09-23T01:38:17.534Z,6.45
2022-09-23T01:40:48.613Z,6.44
2022-09-23T01:43:21.088Z,6.43
2022-09-23T01:45:56.507Z,6.40
2022-09-23T01:48:33.107Z,6.38
2022-09-23T01:51:17.312Z,6.36
2022-09-23T01:54:18.578Z,6.35
2022-09-23T01:56:53.082Z,6.34
2022-09-23T01:59:37.127Z,6.33
2022-09-23T02:02:31.238Z,6.30
2022-09-23T02:05:14.490Z,6.28
2022-09-23T02:08:07.282Z,6.28
2022-09-23T02:10:42.321Z,6.28
2022-09-23T02:13:18.887Z,6.28
2022-09-23T02:15:51.256Z,6.28
2022-09-23T02:18:38.342Z,6.28
2022-09-23T02:21:09.725Z,6.27
2022-09-23T02:23:48.544Z,6.26
2022-09-23T02:26:48.944Z,6.24
2022-09-23T02:29:22.497Z,6.23
2022-09-23T02:31:59.267Z,6.22
2022-09-23T02:34:53.019Z,6.20
2022-09-23T02:37:47.785Z,6.18
2022-09-23T02:40:31.685Z,6.16
2022-09-23T02:43:12.843Z,6.14
2022-09-23T02:45:41.012Z,6.13
2022-09-23T02:48:14.915Z,6.11
2022-09-23T02:50:43.002Z,6.09
2022-09-23T02:53:11.247Z,6.08
2022-09-23T02:55:39.612Z,6.07
2022-09-23T02:58:07.861Z,6.06
2022-09-23T03:01:07.671Z,6.05
2022-09-23T03:03:41.388Z,6.04
2022-09-23T03:06:26.812Z,6.03
2022-09-23T03:09:13.333Z,6.03
2022-09-23T03:11:48.753Z,6.04
2022-09-23T03:14:44.932Z,6.06
2022-09-23T03:17:25.421Z,6.08
2022-09-23T03:20:03.344Z,6.10
2022-09-23T03:22:40.097Z,6.14
2022-09-23T03:25:15.565Z,6.17
2022-09-23T03:27:45.734Z,6.20
2022-09-23T03:30:14.211Z,6.24
2022-09-23T03:32:45.596Z,6.28
2022-09-23T03:35:14.733Z,6.32
2022-09-23T03:37:47.902Z,6.35
2022-09-23T03:40:19.607Z,6.39
2022-09-23T03:42:50.794Z,6.44
2022-09-23T03:45:23.517Z,6.49
2022-09-23T03:47:51.544Z,6.52
2022-09-23T03:50:21.070Z,6.55
2022-09-23T03:52:50.759Z,6.56
2022-09-23T03:55:20.083Z,6.56
2022-09-23T03:57:48.063Z,6.57
2022-09-23T04:00:16.400Z,6.57
2022-09-23T04:02:44.562Z,6.56
2022-09-23T04:05:13.599Z,6.55
2022-09-23T04:07:41.607Z,6.54
2022-09-23T04:10:10.720Z,6.54
2022-09-23T04:12:38.738Z,6.53
2022-09-23T04:15:07.447Z,6.53
2022-09-23T04:17:35.416Z,6.52
2022-09-23T04:20:04.042Z,6.52
2022-09-23T04:22:34.099Z,6.52
2022-09-23T04:25:02.464Z,6.51
2022-09-23T04:27:34.203Z,6.51
2022-09-23T04:30:06.466Z,6.50
2022-09-23T04:32:35.349Z,6.50
2022-09-23T04:35:03.942Z,6.50
2022-09-23T04:37:32.010Z,6.51
2022-09-23T04:40:00.181Z,6.50
2022-09-23T04:42:30.243Z,6.50
2022-09-23T04:45:06.765Z,6.49
2022-09-23T04:47:34.668Z,6.49
2022-09-23T04:50:02.798Z,6.50
2022-09-23T04:52:31.487Z,6.51
2022-09-23T04:54:59.431Z,6.52
2022-09-23T04:57:27.421Z,6.55
2022-09-23T04:59:57.002Z,6.59
2022-09-23T05:02:25.644Z,6.64
2022-09-23T05:04:53.891Z,6.71
2022-09-23T05:07:22.069Z,6.78
2022-09-23T05:09:50.033Z,6.86
2022-09-23T05:12:18.004Z,6.90
2022-09-23T05:14:45.925Z,6.97
2022-09-23T05:17:14.957Z,7.06
2022-09-23T05:19:42.924Z,7.18
2022-09-23T05:22:10.895Z,7.28
2022-09-23T05:24:38.793Z,7.39
2022-09-23T05:27:08.066Z,7.48
2022-09-23T05:29:36.436Z,7.57
2022-09-23T05:32:04.409Z,7.63
2022-09-23T05:34:32.587Z,7.68
2022-09-23T05:37:00.544Z,7.71
2022-09-23T05:39:29.143Z,7.69
2022-09-23T05:41:57.823Z,7.70
2022-09-23T05:44:26.088Z,7.72
2022-09-23T05:46:54.148Z,7.73
2022-09-23T05:49:33.055Z,7.74
2022-09-23T05:52:10.681Z,7.76
2022-09-23T05:54:38.643Z,7.74
2022-09-23T05:57:06.635Z,7.73
2022-09-23T05:59:34.906Z,7.70
2022-09-23T06:02:03.052Z,7.64
2022-09-23T06:04:31.306Z,7.59
2022-09-23T06:07:03.067Z,7.61
2022-09-23T06:09:36.150Z,7.67
2022-09-23T06:12:06.567Z,7.73
2022-09-23T06:14:34.684Z,7.83
2022-09-23T06:17:02.761Z,7.95
2022-09-23T06:19:30.676Z,8.06
2022-09-23T06:21:58.685Z,8.16
2022-09-23T06:24:31.111Z,8.23
2022-09-23T06:27:01.004Z,8.32
2022-09-23T06:29:31.001Z,8.40
2022-09-23T06:31:59.855Z,8.48
2022-09-23T06:34:28.034Z,8.57
2022-09-23T06:36:56.017Z,8.67
2022-09-23T06:39:24.101Z,8.80
2022-09-23T06:41:52.071Z,8.90
2022-09-23T06:44:20.017Z,9.00
2022-09-23T06:46:48.155Z,9.11
2022-09-23T06:49:16.177Z,9.19
2022-09-23T06:51:44.133Z,9.29
2022-09-23T06:54:12.137Z,9.39
2022-09-23T06:56:40.584Z,9.46
2022-09-23T06:59:13.156Z,9.52
2022-09-23T07:01:41.830Z,9.60
2022-09-23T07:04:10.896Z,9.68
2022-09-23T07:06:39.746Z,9.78
2022-09-23T07:09:09.063Z,9.88
2022-09-23T07:11:37.880Z,9.95
2022-09-23T07:14:06.393Z,10.03
2022-09-23T07:16:34.470Z,10.09
2022-09-23T07:19:02.707Z,10.19
2022-09-23T07:21:31.120Z,10.29
2022-09-23T07:23:59.290Z,10.37
2022-09-23T07:26:27.307Z,10.42
2022-09-23T07:28:57.041Z,10.47
2022-09-23T07:31:37.546Z,10.51
2022-09-23T07:34:11.830Z,10.54
2022-09-23T07:36:43.276Z,10.60
2022-09-23T07:39:12.536Z,10.68
2022-09-23T07:41:41.914Z,10.77
2022-09-23T07:44:11.856Z,10.86
2022-09-23T07:46:40.337Z,10.95
2022-09-23T07:49:08.571Z,11.06
2022-09-23T07:51:38.854Z,11.19
2022-09-23T07:54:10.653Z,11.34
2022-09-23T07:56:39.047Z,11.48
2022-09-23T07:59:09.654Z,11.70
2022-09-23T08:01:41.399Z,11.85
2022-09-23T08:04:13.588Z,11.94
2022-09-23T08:06:55.781Z,12.02
2022-09-23T08:09:30.202Z,12.07
2022-09-23T08:11:58.802Z,12.10
2022-09-23T08:14:27.740Z,12.15
2022-09-23T08:16:55.665Z,12.16
2022-09-23T08:19:23.788Z,12.19
2022-09-23T08:21:52.402Z,12.22
2022-09-23T08:24:23.819Z,12.29
2022-09-23T08:26:53.471Z,12.38
2022-09-23T08:29:23.704Z,12.46
2022-09-23T08:31:51.847Z,12.53
2022-09-23T08:34:21.477Z,12.60
2022-09-23T08:36:49.944Z,12.71
2022-09-23T08:39:20.444Z,12.78
2022-09-23T08:41:58.508Z,12.80
2022-09-23T08:44:53.462Z,12.82
2022-09-23T08:47:44.060Z,12.83
2022-09-23T08:50:22.893Z,12.85
2022-09-23T08:53:02.932Z,12.87
2022-09-23T08:55:37.683Z,12.91
2022-09-23T08:58:25.704Z,12.91
2022-09-23T09:00:54.194Z,12.91
2022-09-23T09:03:31.534Z,12.91
2022-09-23T09:05:59.681Z,12.91
2022-09-23T09:08:36.960Z,12.91
2022-09-23T09:11:06.256Z,12.96
2022-09-23T09:13:43.408Z,13.02
2022-09-23T09:16:55.397Z,13.04
2022-09-23T09:19:32.594Z,13.05
2022-09-23T09:22:02.093Z,13.11
2022-09-23T09:24:35.271Z,13.19
2022-09-23T09:27:12.267Z,13.28
2022-09-23T09:29:50.002Z,13.39
2022-09-23T09:32:46.393Z,13.48
2022-09-23T09:36:09.770Z,13.61
2022-09-23T09:38:37.989Z,13.74
2022-09-23T09:41:17.894Z,13.79
2022-09-23T09:43:50.462Z,13.86
2022-09-23T09:46:49.281Z,13.91
2022-09-23T09:49:28.811Z,13.99
2022-09-23T09:52:14.336Z,14.07
2022-09-23T09:54:43.594Z,14.15
2022-09-23T09:57:32.117Z,14.19
2022-09-23T10:00:42.952Z,14.26
2022-09-23T10:03:13.680Z,14.35
2022-09-23T10:05:45.236Z,14.43
2022-09-23T10:08:19.157Z,14.55
2022-09-23T10:11:00.935Z,14.67
2022-09-23T10:13:30.529Z,14.82
2022-09-23T10:16:01.771Z,14.98
2022-09-23T10:18:38.266Z,15.13
2022-09-23T10:21:15.419Z,15.26
2022-09-23T10:23:58.209Z,15.32
2022-09-23T10:26:31.192Z,15.32
2022-09-23T10:29:02.830Z,15.27
2022-09-23T10:31:33.303Z,15.22
2022-09-23T10:34:04.452Z,15.17
2022-09-23T10:36:33.397Z,15.11
2022-09-23T10:39:23.118Z,15.04
2022-09-23T10:42:12.495Z,14.96
2022-09-23T10:45:15.600Z,14.92
2022-09-23T10:48:06.696Z,14.86
2022-09-23T10:51:27.533Z,14.80
2022-09-23T10:53:58.255Z,14.74
2022-09-23T10:56:28.979Z,14.70
2022-09-23T10:59:29.399Z,14.67
2022-09-23T11:02:31.678Z,14.63
2022-09-23T11:05:24.595Z,14.59
2022-09-23T11:08:10.577Z,14.54
2022-09-23T11:11:11.625Z,14.47
2022-09-23T11:14:07.732Z,14.45
2022-09-23T11:16:51.163Z,14.45
2022-09-23T11:19:32.443Z,14.43
2022-09-23T11:22:19.113Z,14.43
2022-09-23T11:25:25.381Z,14.44
2022-09-23T11:28:32.171Z,14.46
2022-09-23T11:31:24.603Z,14.46
2022-09-23T11:33:55.181Z,14.46
2022-09-23T11:36:32.957Z,14.48
2022-09-23T11:39:08.370Z,14.50
2022-09-23T11:41:39.779Z,14.53
2022-09-23T11:44:20.400Z,14.55
2022-09-23T11:46:55.937Z,14.57
2022-09-23T11:49:41.204Z,14.60
2022-09-23T11:52:20.624Z,14.63
2022-09-23T11:55:02.402Z,14.66
2022-09-23T11:57:45.940Z,14.73
2022-09-23T12:00:23.298Z,14.79
2022-09-23T12:03:18.629Z,14.85
2022-09-23T12:06:03.246Z,14.94
2022-09-23T12:08:33.556Z,15.01
2022-09-23T12:11:24.982Z,15.06
2022-09-23T12:13:56.704Z,15.11
2022-09-23T12:16:43.290Z,15.16
2022-09-23T12:19:33.417Z,15.23
2022-09-23T12:22:14.305Z,15.29
2022-09-23T12:24:51.759Z,15.33
2022-09-23T12:27:45.778Z,15.34
2022-09-23T12:30:23.384Z,15.37
2022-09-23T12:32:51.595Z,15.39
2022-09-23T12:35:27.497Z,15.43
2022-09-23T12:37:55.750Z,15.45
2022-09-23T12:40:34.928Z,15.48
2022-09-23T12:43:03.265Z,15.52
2022-09-23T12:45:35.318Z,15.53
2022-09-23T12:48:43.205Z,15.54
2022-09-23T12:51:21.750Z,15.52
2022-09-23T12:53:54.420Z,15.50
2022-09-23T12:56:34.143Z,15.47
2022-09-23T12:59:16.375Z,15.46
2022-09-23T13:01:45.234Z,15.44
2022-09-23T13:05:09.243Z,15.42
2022-09-23T13:07:45.458Z,15.41
2022-09-23T13:10:26.146Z,15.42
2022-09-23T13:12:56.001Z,15.44
2022-09-23T13:15:29.032Z,15.47
2022-09-23T13:18:18.782Z,15.49
2022-09-23T13:20:48.939Z,15.49
2022-09-23T13:23:22.820Z,15.46
2022-09-23T13:25:57.508Z,15.44
2022-09-23T13:28:54.965Z,15.41
2022-09-23T13:31:23.393Z,15.37
2022-09-23T13:34:06.205Z,15.34
2022-09-23T13:36:44.877Z,15.31
2022-09-23T13:39:25.074Z,15.29
2022-09-23T13:42:01.048Z,15.31
2022-09-23T13:44:29.862Z,15.31
2022-09-23T13:47:02.315Z,15.33
2022-09-23T13:49:35.370Z,15.35
2022-09-23T13:52:04.325Z,15.37
2022-09-23T13:54:47.964Z,15.37
2022-09-23T13:57:35.617Z,15.37
2022-09-23T14:00:21.407Z,15.36
2022-09-23T14:02:49.538Z,15.35
2022-09-23T14:05:24.280Z,15.34
2022-09-23T14:07:54.001Z,15.34
2022-09-23T14:10:24.935Z,15.36
2022-09-23T14:12:54.947Z,15.37
2022-09-23T14:15:23.418Z,15.36
2022-09-23T14:18:02.256Z,15.33
2022-09-23T14:20:30.321Z,15.31
2022-09-23T14:23:11.905Z,15.29
2022-09-23T14:25:41.794Z,15.26
2022-09-23T14:28:20.745Z,15.25
2022-09-23T14:30:51.786Z,15.25
2022-09-23T14:33:28.564Z,15.24
2022-09-23T14:36:09.142Z,15.22
2022-09-23T14:38:52.579Z,15.15
2022-09-23T14:41:25.561Z,15.11
2022-09-23T14:43:59.780Z,15.09
2022-09-23T14:46:31.153Z,15.06
2022-09-23T14:49:17.923Z,15.03
2022-09-23T14:52:00.643Z,15.02
2022-09-23T14:54:45.998Z,14.99
2022-09-23T14:57:23.401Z,14.96
2022-09-23T15:00:02.582Z,14.93
2022-09-23T15:02:40.356Z,14.90
2022-09-23T15:05:17.622Z,14.90
2022-09-23T15:07:53.424Z,14.89
2022-09-23T15:10:27.130Z,14.86
2022-09-23T15:13:04.455Z,14.82
2022-09-23T15:15:32.958Z,14.80
2022-09-23T15:18:15.715Z,14.78
2022-09-23T15:20:52.524Z,14.77
2022-09-23T15:23:45.270Z,14.76
2022-09-23T15:26:47.307Z,14.72
2022-09-23T15:29:15.215Z,14.69
2022-09-23T15:31:43.205Z,14.67
2022-09-23T15:34:11.346Z,14.67
2022-09-23T15:36:40.062Z,14.66
2022-09-23T15:39:08.844Z,14.63
2022-09-23T15:41:36.848Z,14.60
2022-09-23T15:44:12.937Z,14.59
2022-09-23T15:46:46.938Z,14.59
2022-09-23T15:49:36.539Z,14.58
2022-09-23T15:52:06.172Z,14.57
2022-09-23T15:54:34.574Z,14.56
2022-09-23T15:57:02.899Z,14.54
2022-09-23T15:59:31.379Z,14.51
2022-09-23T16:02:05.916Z,14.48
2022-09-23T16:04:34.175Z,14.45
2022-09-23T16:07:04.701Z,14.42
2022-09-23T16:09:32.846Z,14.38
2022-09-23T16:12:02.839Z,14.37
2022-09-23T16:14:30.862Z,14.33
2022-09-23T16:16:58.837Z,14.30
2022-09-23T16:19:26.900Z,14.28
2022-09-23T16:21:54.837Z,14.23
2022-09-23T16:24:27.934Z,14.17
2022-09-23T16:27:00.074Z,14.12
2022-09-23T16:29:28.192Z,14.05
2022-09-23T16:31:56.188Z,14.00
2022-09-23T16:34:24.156Z,13.94
2022-09-23T16:36:52.099Z,13.88
2022-09-23T16:39:20.781Z,13.84
2022-09-23T16:41:48.816Z,13.78
2022-09-23T16:44:16.722Z,13.73
2022-09-23T16:46:44.790Z,13.67
2022-09-23T16:49:14.096Z,13.61
2022-09-23T16:51:42.366Z,13.53
2022-09-23T16:54:12.934Z,13.45
2022-09-23T16:56:46.467Z,13.39
2022-09-23T16:59:16.077Z,13.32
2022-09-23T17:02:03.021Z,13.24
2022-09-23T17:04:31.764Z,13.15
2022-09-23T17:06:59.703Z,13.08
2022-09-23T17:09:29.189Z,13.02
2022-09-23T17:12:14.226Z,12.96
2022-09-23T17:14:43.246Z,12.88
2022-09-23T17:17:11.156Z,12.81
2022-09-23T17:19:41.599Z,12.74
2022-09-23T17:22:10.062Z,12.66
2022-09-23T17:24:37.998Z,12.61
2022-09-23T17:27:05.940Z,12.54
2022-09-23T17:29:33.882Z,12.47
2022-09-23T17:32:02.572Z,12.42
2022-09-23T17:34:32.010Z,12.36
2022-09-23T17:37:00.577Z,12.30
2022-09-23T17:39:28.556Z,12.25
2022-09-23T17:41:58.730Z,12.20
2022-09-23T17:44:26.851Z,12.16
2022-09-23T17:46:54.813Z,12.10
2022-09-23T17:49:24.584Z,12.04
2022-09-23T17:51:52.567Z,11.98
2022-09-23T17:54:20.552Z,11.93
2022-09-23T17:56:48.518Z,11.87
2022-09-23T17:59:16.595Z,11.83
2022-09-23T18:01:44.608Z,11.79
2022-09-23T18:04:12.851Z,11.75
2022-09-23T18:06:40.801Z,11.71
2022-09-23T18:09:08.926Z,11.67
2022-09-23T18:11:39.916Z,11.66
2022-09-23T18:14:13.463Z,11.64
2022-09-23T18:16:44.190Z,11.64
2022-09-23T18:19:14.777Z,11.62
2022-09-23T18:21:48.530Z,11.60
2022-09-23T18:24:34.102Z,11.58
2022-09-23T18:27:04.079Z,11.56
2022-09-23T18:29:33.127Z,11.53
2022-09-23T18:32:01.833Z,11.52
2022-09-23T18:34:31.029Z,11.50
2022-09-23T18:36:58.998Z,11.47
2022-09-23T18:39:27.089Z,11.45
2022-09-23T18:41:55.643Z,11.41
2022-09-23T18:44:23.629Z,11.37
2022-09-23T18:46:51.712Z,11.32
2022-09-23T18:49:37.975Z,11.27
2022-09-23T18:52:05.855Z,11.22
2022-09-23T18:54:33.740Z,11.19
2022-09-23T18:57:02.723Z,11.16
2022-09-23T18:59:32.137Z,11.11
2022-09-23T19:02:00.464Z,11.08
2022-09-23T19:04:29.297Z,11.04
2022-09-23T19:06:58.092Z,11.01
2022-09-23T19:09:26.574Z,10.96
2022-09-23T19:11:54.641Z,10.92
2022-09-23T19:14:23.631Z,10.88
2022-09-23T19:16:52.114Z,10.83
2022-09-23T19:19:20.184Z,10.77
2022-09-23T19:21:48.265Z,10.74
2022-09-23T19:24:20.095Z,10.69
2022-09-23T19:26:48.976Z,10.64
2022-09-23T19:29:22.103Z,10.61
2022-09-23T19:31:51.331Z,10.59
2022-09-23T19:34:23.961Z,10.56
2022-09-23T19:36:53.006Z,10.53
2022-09-23T19:39:27.153Z,10.50
2022-09-23T19:41:58.927Z,10.47
2022-09-23T19:44:27.096Z,10.43
2022-09-23T19:46:57.042Z,10.39
2022-09-23T19:49:26.253Z,10.34
2022-09-23T19:51:56.002Z,10.28
2022-09-23T19:54:27.433Z,10.24
2022-09-23T19:56:55.974Z,10.20
2022-09-23T19:59:26.042Z,10.18
2022-09-23T20:01:54.056Z,10.13
2022-09-23T20:04:22.152Z,10.08
2022-09-23T20:06:50.121Z,10.04
2022-09-23T20:09:18.203Z,10.01
2022-09-23T20:11:46.228Z,10.00
2022-09-23T20:14:14.305Z,9.99
2022-09-23T20:16:42.491Z,9.95
2022-09-23T20:19:11.454Z,9.94
2022-09-23T20:21:39.376Z,9.91
2022-09-23T20:24:09.734Z,9.90
2022-09-23T20:26:56.866Z,9.90
2022-09-23T20:29:24.729Z,9.91
2022-09-23T20:31:53.000Z,9.93
2022-09-23T20:34:21.799Z,9.95
2022-09-23T20:36:50.306Z,9.97
2022-09-23T20:39:18.220Z,9.98
2022-09-23T20:41:46.616Z,9.99
2022-09-23T20:44:14.896Z,9.99
2022-09-23T20:46:48.494Z,9.98
2022-09-23T20:49:17.972Z,9.99
2022-09-23T20:51:48.440Z,10.00
2022-09-23T20:54:20.385Z,10.02
2022-09-23T20:56:48.410Z,10.02
2022-09-23T20:59:18.370Z,10.03
2022-09-23T21:01:46.754Z,10.05
2022-09-23T21:04:15.331Z,10.06
2022-09-23T21:06:43.296Z,10.06
2022-09-23T21:09:11.271Z,10.06
2022-09-23T21:11:39.233Z,10.06
2022-09-23T21:14:07.498Z,10.06
2022-09-23T21:16:36.091Z,10.05
2022-09-23T21:19:08.028Z,10.06
2022-09-23T21:21:36.295Z,10.06
2022-09-23T21:24:31.361Z,10.04
2022-09-23T21:26:52.539Z,10.02
2022-09-23T21:29:20.713Z,10.00
2022-09-23T21:31:49.816Z,9.97
2022-09-23T21:34:19.526Z,9.93
2022-09-23T21:36:48.381Z,9.88
2022-09-23T21:39:16.786Z,9.87
2022-09-23T21:41:45.101Z,9.86
2022-09-23T21:44:13.029Z,9.85
2022-09-23T21:46:41.018Z,9.85
2022-09-23T21:49:09.352Z,9.86
2022-09-23T21:51:43.001Z,9.85
2022-09-23T21:54:14.505Z,9.83
2022-09-23T21:56:43.593Z,9.82
2022-09-23T21:59:11.917Z,9.82
2022-09-23T22:01:44.856Z,9.83
2022-09-23T22:04:17.219Z,9.85
2022-09-23T22:06:46.043Z,9.85
2022-09-23T22:09:17.565Z,9.87
2022-09-23T22:12:04.814Z,9.87
2022-09-23T22:14:33.187Z,9.89
2022-09-23T22:17:03.904Z,9.89
2022-09-23T22:19:45.610Z,9.89
2022-09-23T22:22:17.855Z,9.88
2022-09-23T22:24:47.759Z,9.88
2022-09-23T22:27:18.829Z,9.87
2022-09-23T22:30:06.229Z,9.87
2022-09-23T22:32:40.864Z,9.86
2022-09-23T22:35:13.747Z,9.86
2022-09-23T22:37:41.736Z,9.86
2022-09-23T22:40:14.637Z,9.86
2022-09-23T22:42:43.212Z,9.87
2022-09-23T22:45:12.708Z,9.86
2022-09-23T22:47:45.363Z,9.86
2022-09-23T22:50:14.873Z,9.85
2022-09-23T22:52:43.397Z,9.84
2022-09-23T22:55:11.947Z,9.83
2022-09-23T22:57:40.169Z,9.83
2022-09-23T23:00:09.580Z,9.81
2022-09-23T23:02:37.599Z,9.80
2022-09-23T23:05:06.104Z,9.77
2022-09-23T23:07:35.249Z,9.76
2022-09-23T23:10:04.805Z,9.76
2022-09-23T23:12:33.771Z,9.76
2022-09-23T23:15:01.858Z,9.76
2022-09-23T23:17:30.115Z,9.76
2022-09-23T23:19:58.698Z,9.76
2022-09-23T23:22:28.606Z,9.75
2022-09-23T23:24:56.781Z,9.74
2022-09-23T23:27:24.752Z,9.74
2022-09-23T23:29:52.688Z,9.73
2022-09-23T23:32:20.701Z,9.73
2022-09-23T23:34:48.599Z,9.70
2022-09-23T23:37:20.607Z,9.67
2022-09-23T23:39:49.025Z,9.66
2022-09-23T23:42:17.273Z,9.65
2022-09-23T23:44:45.547Z,9.66
2022-09-23T23:47:13.518Z,9.66
2022-09-23T23:49:41.588Z,9.65
2022-09-23T23:52:09.904Z,9.65
2022-09-23T23:54:38.654Z,9.65
2022-09-23T23:57:07.282Z,9.64
2022-09-23T23:59:35.308Z,9.61
